createdAt,value
2018-08-18T00:02:01.276Z,3.70
2018-08-18T00:07:30.527Z,3.97
2018-08-18T00:12:59.824Z,3.45
2018-08-18T00:18:29.071Z,3.50
2018-08-18T00:24:06.272Z,3.80
2018-08-18T00:29:36.407Z,3.30
2018-08-18T00:35:08.584Z,2.90
2018-08-18T00:40:39.016Z,2.63
2018-08-18T00:46:08.394Z,2.93
2018-08-18T00:51:42.046Z,2.53
2018-08-18T00:57:46.289Z,2.40
2018-08-18T01:03:15.696Z,2.90
2018-08-18T01:08:44.967Z,2.70
2018-08-18T01:14:19.700Z,2.57
2018-08-18T01:19:49.141Z,2.30
2018-08-18T01:25:18.473Z,3.27
2018-08-18T01:31:02.076Z,2.70
2018-08-18T01:36:31.256Z,3.23
2018-08-18T01:42:00.576Z,3.00
2018-08-18T01:47:29.867Z,3.47
2018-08-18T01:52:59.159Z,3.20
2018-08-18T01:58:28.360Z,3.67
2018-08-18T02:03:57.631Z,2.93
2018-08-18T02:09:26.825Z,3.70
2018-08-18T02:14:56.480Z,4.00
2018-08-18T02:20:25.685Z,4.17
2018-08-18T02:25:55.740Z,4.13
2018-08-18T02:31:25.135Z,4.67
2018-08-18T02:36:54.385Z,3.97
2018-08-18T02:42:23.711Z,4.00
2018-08-18T02:48:10.318Z,4.50
2018-08-18T02:53:40.843Z,4.73
2018-08-18T02:59:10.814Z,5.40
2018-08-18T03:04:45.120Z,4.83
2018-08-18T03:10:18.591Z,4.33
2018-08-18T03:15:55.288Z,4.77
2018-08-18T03:21:30.917Z,4.90
2018-08-18T03:27:00.333Z,4.93
2018-08-18T03:32:29.529Z,5.03
2018-08-18T03:37:58.809Z,4.53
2018-08-18T03:43:28.104Z,3.90
2018-08-18T03:48:57.375Z,4.70
2018-08-18T03:54:26.791Z,5.40
2018-08-18T03:59:56.112Z,4.70
2018-08-18T04:05:25.340Z,4.60
2018-08-18T04:10:54.559Z,6.03
2018-08-18T04:16:23.771Z,5.40
2018-08-18T04:21:53.898Z,5.53
2018-08-18T04:27:38.482Z,5.83
2018-08-18T04:33:07.891Z,5.60
2018-08-18T04:38:37.119Z,6.37
2018-08-18T04:44:06.560Z,6.20
2018-08-18T04:49:35.849Z,6.43
2018-08-18T04:55:05.263Z,7.37
2018-08-18T05:00:34.484Z,7.47
2018-08-18T05:06:03.767Z,6.97
2018-08-18T05:11:33.066Z,7.37
2018-08-18T05:17:02.249Z,7.40
2018-08-18T05:22:31.501Z,6.97
2018-08-18T05:28:01.239Z,7.13
2018-08-18T05:33:30.505Z,7.97
2018-08-18T05:38:59.808Z,7.60
2018-08-18T05:44:29.689Z,10.28
2018-08-18T05:49:58.982Z,9.28
2018-08-18T05:55:28.380Z,10.90
2018-08-18T06:01:02.840Z,9.53
2018-08-18T06:06:32.203Z,11.53
2018-08-18T06:12:07.833Z,10.10
2018-08-18T06:17:37.110Z,9.40
2018-08-18T06:23:07.087Z,9.70
2018-08-18T06:28:36.315Z,11.30
2018-08-18T06:34:06.615Z,9.65
2018-08-18T06:39:54.358Z,9.40
2018-08-18T06:45:23.659Z,9.93
2018-08-18T06:50:53.533Z,8.90
2018-08-18T06:56:22.732Z,9.43
2018-08-18T07:01:52.214Z,9.93
2018-08-18T07:07:24.221Z,9.43
2018-08-18T07:12:55.845Z,9.53
2018-08-18T07:18:25.196Z,9.50
2018-08-18T07:23:54.724Z,9.40
2018-08-18T07:29:24.092Z,10.20
2018-08-18T07:34:53.398Z,10.10
2018-08-18T07:40:30.571Z,9.88
2018-08-18T07:46:01.376Z,10.13
2018-08-18T07:51:30.668Z,9.13
2018-08-18T07:57:06.096Z,8.50
2018-08-18T08:02:35.345Z,9.40
2018-08-18T08:08:04.867Z,10.23
2018-08-18T08:13:34.268Z,10.17
2018-08-18T08:19:03.904Z,10.20
2018-08-18T08:24:33.228Z,9.97
2018-08-18T08:30:02.543Z,9.30
2018-08-18T08:35:31.887Z,8.58
2018-08-18T08:41:01.195Z,9.80
2018-08-18T08:46:31.551Z,11.40
2018-08-18T08:52:00.853Z,10.55
2018-08-18T08:57:30.111Z,10.55
2018-08-18T09:02:59.711Z,10.18
2018-08-18T09:08:29.072Z,10.37
2018-08-18T09:14:06.608Z,12.03
2018-08-18T09:19:35.986Z,11.33
2018-08-18T09:25:11.504Z,11.38
2018-08-18T09:30:40.920Z,10.70
2018-08-18T09:36:10.453Z,11.53
2018-08-18T09:41:39.848Z,11.97
2018-08-18T09:47:09.211Z,11.83
2018-08-18T09:52:39.970Z,12.20
2018-08-18T09:58:09.689Z,12.17
2018-08-18T10:03:39.060Z,12.03
2018-08-18T10:09:09.688Z,11.80
2018-08-18T10:14:39.217Z,14.05
2018-08-18T10:20:08.943Z,15.07
2018-08-18T10:25:38.272Z,14.10
2018-08-18T10:31:07.900Z,13.20
2018-08-18T10:36:37.404Z,15.05
2018-08-18T10:42:15.584Z,12.37
2018-08-18T10:47:45.481Z,10.03
2018-08-18T10:53:14.965Z,10.13
2018-08-18T10:59:18.957Z,9.10
2018-08-18T11:04:48.188Z,7.90
2018-08-18T11:10:17.759Z,6.70
2018-08-18T11:15:47.103Z,6.60
2018-08-18T11:21:16.333Z,6.33
2018-08-18T11:26:48.133Z,6.90
2018-08-18T11:32:18.039Z,5.93
2018-08-18T11:38:03.157Z,5.23
2018-08-18T11:43:41.067Z,6.40
2018-08-18T11:49:10.407Z,6.00
2018-08-18T11:54:41.667Z,6.30
2018-08-18T12:00:11.149Z,6.40
2018-08-18T12:05:46.853Z,6.10
2018-08-18T12:11:16.466Z,6.40
2018-08-18T12:16:45.772Z,7.40
2018-08-18T12:22:15.115Z,6.53
2018-08-18T12:27:44.621Z,5.20
2018-08-18T12:33:19.205Z,4.60
2018-08-18T12:38:55.201Z,5.70
2018-08-18T12:44:29.779Z,5.63
2018-08-18T12:49:59.166Z,5.13
2018-08-18T12:55:28.437Z,5.50
2018-08-18T13:00:58.023Z,5.05
2018-08-18T13:06:27.359Z,4.83
2018-08-18T13:11:58.078Z,4.78
2018-08-18T13:17:27.239Z,4.37
2018-08-18T13:23:00.231Z,5.60
2018-08-18T13:28:29.675Z,5.20
2018-08-18T13:33:58.999Z,5.47
2018-08-18T13:39:28.281Z,5.40
2018-08-18T13:44:58.017Z,4.50
2018-08-18T13:50:27.354Z,5.10
2018-08-18T13:55:56.659Z,4.40
2018-08-18T14:01:38.963Z,4.20
2018-08-18T14:07:09.377Z,3.77
2018-08-18T14:12:38.986Z,3.73
2018-08-18T14:18:11.844Z,4.17
2018-08-18T14:23:41.368Z,4.00
2018-08-18T14:29:10.745Z,4.00
2018-08-18T14:34:41.120Z,3.63
2018-08-18T14:40:15.065Z,3.27
2018-08-18T14:45:44.652Z,3.63
2018-08-18T14:51:14.259Z,3.90
2018-08-18T14:56:44.402Z,3.53
2018-08-18T15:02:14.746Z,2.80
2018-08-18T15:07:50.289Z,3.50
2018-08-18T15:13:20.347Z,3.37
2018-08-18T15:18:50.767Z,3.30
2018-08-18T15:24:20.191Z,3.43
2018-08-18T15:29:49.618Z,3.03
2018-08-18T15:35:18.883Z,3.60
2018-08-18T15:40:48.197Z,3.53
2018-08-18T15:46:18.580Z,3.70
2018-08-18T15:51:47.929Z,3.80
2018-08-18T15:57:17.176Z,3.33
2018-08-18T16:02:51.617Z,4.00
2018-08-18T16:08:20.937Z,4.30
2018-08-18T16:13:50.633Z,3.27
2018-08-18T16:19:19.963Z,3.90
2018-08-18T16:24:49.696Z,3.70
2018-08-18T16:30:20.093Z,3.83
2018-08-18T16:35:49.664Z,3.97
2018-08-18T16:41:19.007Z,4.20
2018-08-18T16:46:48.485Z,3.98
2018-08-18T16:52:18.683Z,4.90
2018-08-18T16:57:48.793Z,3.77
2018-08-18T17:03:22.259Z,4.30
2018-08-18T17:08:51.487Z,4.10
2018-08-18T17:14:20.716Z,4.60
2018-08-18T17:19:49.964Z,4.00
2018-08-18T17:25:19.156Z,4.43
2018-08-18T17:30:51.325Z,4.13
2018-08-18T17:36:20.772Z,4.70
2018-08-18T17:41:50.895Z,3.97
2018-08-18T17:47:20.393Z,4.30
2018-08-18T17:52:50.221Z,4.90
2018-08-18T17:58:20.237Z,5.20
2018-08-18T18:03:49.552Z,4.40
2018-08-18T18:09:19.271Z,5.00
2018-08-18T18:14:48.644Z,4.77
2018-08-18T18:20:20.591Z,4.40
2018-08-18T18:25:50.222Z,5.27
2018-08-18T18:31:19.710Z,5.83
2018-08-18T18:36:50.295Z,6.25
2018-08-18T18:42:19.572Z,5.13
2018-08-18T18:47:48.956Z,6.00
2018-08-18T18:53:18.498Z,5.73
2018-08-18T18:58:47.811Z,4.90
2018-08-18T19:04:17.221Z,6.93
2018-08-18T19:09:46.702Z,8.78
2018-08-18T19:15:15.985Z,11.40
2018-08-18T19:20:45.432Z,30.30
2018-08-18T19:26:14.741Z,13.00
2018-08-18T19:31:44.339Z,12.25
2018-08-18T19:37:13.779Z,9.88
2018-08-18T19:42:43.132Z,10.35
2018-08-18T19:48:15.017Z,10.43
2018-08-18T19:53:44.518Z,10.63
2018-08-18T19:59:14.007Z,9.25
2018-08-18T20:04:43.346Z,9.75
2018-08-18T20:10:12.712Z,9.50
2018-08-18T20:15:45.232Z,9.50
2018-08-18T20:21:14.600Z,8.60
2018-08-18T20:26:43.951Z,9.25
2018-08-18T20:32:13.223Z,8.23
2018-08-18T20:37:43.017Z,7.20
2018-08-18T20:43:13.665Z,8.13
2018-08-18T20:48:44.106Z,9.18
2018-08-18T20:54:13.634Z,9.77
2018-08-18T20:59:42.967Z,8.60
2018-08-18T21:05:12.524Z,9.17
2018-08-18T21:10:41.862Z,10.38
2018-08-18T21:16:11.233Z,9.87
2018-08-18T21:21:41.499Z,9.15
2018-08-18T21:27:11.025Z,9.40
2018-08-18T21:32:40.435Z,10.00
2018-08-18T21:38:09.980Z,10.40
2018-08-18T21:43:40.324Z,10.33
2018-08-18T21:49:10.416Z,10.17
2018-08-18T21:54:40.032Z,10.67
2018-08-18T22:00:09.865Z,9.90
2018-08-18T22:05:39.673Z,11.57
2018-08-18T22:11:12.815Z,10.40
2018-08-18T22:16:47.488Z,10.08
2018-08-18T22:22:22.188Z,11.00
2018-08-18T22:27:53.456Z,11.80
2018-08-18T22:33:27.259Z,11.43
2018-08-18T22:38:57.561Z,10.23
2018-08-18T22:44:26.864Z,11.10
2018-08-18T22:49:56.085Z,10.60
2018-08-18T22:55:25.343Z,11.27
2018-08-18T23:00:55.990Z,10.87
2018-08-18T23:06:25.288Z,10.43
2018-08-18T23:11:55.623Z,11.80
2018-08-18T23:17:25.936Z,10.20
2018-08-18T23:22:59.460Z,11.70
2018-08-18T23:28:28.692Z,10.40
2018-08-18T23:33:57.911Z,10.70
2018-08-18T23:39:28.239Z,10.67
2018-08-18T23:44:57.438Z,10.83
2018-08-18T23:50:27.567Z,10.07
2018-08-18T23:55:59.248Z,9.90
